This is the latest recevied weather packets stored in our database for station/object N5AEH. If no packets are shown the sender has not sent any weather packets the latest 1 day(s).
| Time | Temp. | Humidity | Pressure | Rain* | Wind** | Luminosity | Snow |
|---|---|---|---|---|---|---|---|
| 1778007009 | 28.89° C | 33% | 1006.5 hPa | 0 mm | 1.34 m/s, 227° | 581 W/m² | - |
| 1778006706 | 29.44° C | 32% | 1006.6 hPa | 0 mm | 0.89 m/s, 226° | 388 W/m² | - |
| 1778006403 | 28.89° C | 33% | 1006.8 hPa | 0 mm | 0.89 m/s, 234° | 177 W/m² | - |
| 1778006100 | 28.89° C | 34% | 1007 hPa | 0 mm | 0.45 m/s, 204° | 303 W/m² | - |
| 1778005796 | 28.89° C | 34% | 1007.1 hPa | 0 mm | 0 m/s | 215 W/m² | - |
| 1778005493 | 28.33° C | 34% | 1007.2 hPa | 0 mm | 0.45 m/s, 229° | 824 W/m² | - |
| 1778005190 | 27.78° C | 33% | 1007.4 hPa | 0 mm | 0.45 m/s, 246° | 337 W/m² | - |
| 1778004887 | 28.33° C | 34% | 1007.7 hPa | 0 mm | 0.45 m/s, 223° | 228 W/m² | - |
| 1778004584 | 28.33° C | 34% | 1007.4 hPa | 0 mm | 0.45 m/s, 205° | 880 W/m² | - |
| 1778004280 | 27.78° C | 35% | 1007.6 hPa | 0 mm | 0 m/s | 240 W/m² | - |
| 1778003977 | 27.78° C | 35% | 1007.5 hPa | 0 mm | 0.45 m/s, 183° | 269 W/m² | - |
| 1778003673 | 28.33° C | 35% | 1008.1 hPa | 0 mm | 0.45 m/s, 226° | 186 W/m² | - |
| 1778003370 | 30° C | 33% | 1007.6 hPa | 0 mm | 0.45 m/s, 230° | 141 W/m² | - |
| 1778003067 | 30.56° C | 30% | 1008 hPa | 0 mm | 0.45 m/s, 227° | 234 W/m² | - |
| 1778002763 | 29.44° C | 33% | 1008.1 hPa | 0 mm | 0 m/s | 970 W/m² | - |
| 1778002460 | 28.89° C | 34% | 1007.9 hPa | 0 mm | 0.45 m/s, 259° | 940 W/m² | - |
| 1778002157 | 29.44° C | 33% | 1007.5 hPa | 0 mm | 0.45 m/s, 216° | 255 W/m² | - |
| 1778001855 | 30° C | 31% | 1008 hPa | 0 mm | 0.45 m/s, 151° | 904 W/m² | - |
| 1778001554 | 30° C | 32% | 1008.3 hPa | 0 mm | 0.45 m/s, 206° | 867 W/m² | - |
| 1778001251 | 29.44° C | 32% | 1008.1 hPa | 0 mm | 0.45 m/s, 264° | 847 W/m² | - |
| 1778000948 | 29.44° C | 31% | 1008.3 hPa | 0 mm | 0.45 m/s, 179° | 866 W/m² | - |
| 1778000645 | 29.44° C | 32% | 1008.4 hPa | 0 mm | 0.45 m/s, 238° | 853 W/m² | - |
| 1778000340 | 30° C | 31% | 1008.3 hPa | 0 mm | 0.45 m/s, 239° | 873 W/m² | - |
| 1778000036 | 30° C | 31% | 1008.5 hPa | 0 mm | 0.45 m/s, 234° | 818 W/m² | - |
| 1777999732 | 28.89° C | 34% | 1008.1 hPa | 0 mm | 0 m/s | 715 W/m² | - |
* Rain latest hour (hover to see other rain measurements)
** Current wind speed in m/s (hover to see current wind gust speed)